createdAt,value
2022-09-11T00:00:42.586Z,1.60
2022-09-11T00:03:11.234Z,1.70
2022-09-11T00:05:39.716Z,1.70
2022-09-11T00:08:07.696Z,1.50
2022-09-11T00:10:36.941Z,2.00
2022-09-11T00:13:04.657Z,1.67
2022-09-11T00:15:32.013Z,1.60
2022-09-11T00:17:59.373Z,1.90
2022-09-11T00:20:28.496Z,1.60
2022-09-11T00:22:56.101Z,2.10
2022-09-11T00:25:23.437Z,1.73
2022-09-11T00:27:51.997Z,2.00
2022-09-11T00:30:19.373Z,1.90
2022-09-11T00:32:46.729Z,2.27
2022-09-11T00:35:14.081Z,2.00
2022-09-11T00:37:42.791Z,2.10
2022-09-11T00:40:10.578Z,2.13
2022-09-11T00:42:37.984Z,2.30
2022-09-11T00:45:07.374Z,2.17
2022-09-11T00:47:35.091Z,1.87
2022-09-11T00:50:08.774Z,2.07
2022-09-11T00:52:38.329Z,1.97
2022-09-11T00:55:10.233Z,2.03
2022-09-11T00:57:40.620Z,2.10
2022-09-11T01:00:08.862Z,2.10
2022-09-11T01:02:38.241Z,2.23
2022-09-11T01:05:06.412Z,1.90
2022-09-11T01:07:34.763Z,1.70
2022-09-11T01:10:03.276Z,2.37
2022-09-11T01:12:37.345Z,2.40
2022-09-11T01:15:07.669Z,2.07
2022-09-11T01:17:36.972Z,1.83
2022-09-11T01:20:19.387Z,2.23
2022-09-11T01:22:53.272Z,1.90
2022-09-11T01:25:27.359Z,2.10
2022-09-11T01:27:57.144Z,2.10
2022-09-11T01:30:25.202Z,2.03
2022-09-11T01:33:06.573Z,2.03
2022-09-11T01:35:41.797Z,2.07
2022-09-11T01:38:14.744Z,2.20
2022-09-11T01:40:45.864Z,1.80
2022-09-11T01:43:16.753Z,1.97
2022-09-11T01:45:46.453Z,2.10
2022-09-11T01:48:15.741Z,2.17
2022-09-11T01:50:45.428Z,2.30
2022-09-11T01:53:13.738Z,2.33
2022-09-11T01:55:44.142Z,2.03
2022-09-11T01:58:13.056Z,2.30
2022-09-11T02:00:49.886Z,1.80
2022-09-11T02:03:18.633Z,2.00
2022-09-11T02:05:49.784Z,2.30
2022-09-11T02:08:24.519Z,2.07
2022-09-11T02:10:56.212Z,2.03
2022-09-11T02:13:29.483Z,2.20
2022-09-11T02:16:01.408Z,2.07
2022-09-11T02:18:35.095Z,2.23
2022-09-11T02:21:02.501Z,2.30
2022-09-11T02:23:29.925Z,1.87
2022-09-11T02:25:57.325Z,2.03
2022-09-11T02:28:25.270Z,2.30
2022-09-11T02:30:53.694Z,1.97
2022-09-11T02:33:33.671Z,2.20
2022-09-11T02:36:07.167Z,1.90
2022-09-11T02:38:39.931Z,2.27
2022-09-11T02:41:09.964Z,2.00
2022-09-11T02:43:47.566Z,2.20
2022-09-11T02:46:34.373Z,2.83
2022-09-11T02:49:07.896Z,2.50
2022-09-11T02:51:37.745Z,2.70
2022-09-11T02:54:08.119Z,3.07
2022-09-11T02:56:39.990Z,2.73
2022-09-11T02:59:10.319Z,2.43
2022-09-11T03:01:48.102Z,2.67
2022-09-11T03:04:18.253Z,2.43
2022-09-11T03:06:48.452Z,2.43
2022-09-11T03:09:15.835Z,2.53
2022-09-11T03:11:44.141Z,2.40
2022-09-11T03:14:11.861Z,2.70
2022-09-11T03:16:40.826Z,2.73
2022-09-11T03:19:10.127Z,2.70
2022-09-11T03:21:40.015Z,2.07
2022-09-11T03:24:09.861Z,2.53
2022-09-11T03:26:38.191Z,2.57
2022-09-11T03:29:05.713Z,2.60
2022-09-11T03:31:37.303Z,2.10
2022-09-11T03:34:07.149Z,2.30
2022-09-11T03:36:35.254Z,2.10
2022-09-11T03:39:04.753Z,2.60
2022-09-11T03:41:33.019Z,2.60
2022-09-11T03:44:00.628Z,2.37
2022-09-11T03:46:29.763Z,2.60
2022-09-11T03:48:58.066Z,2.60
2022-09-11T03:51:26.260Z,2.70
2022-09-11T03:53:54.082Z,3.10
2022-09-11T03:56:23.017Z,2.97
2022-09-11T03:58:50.364Z,3.00
2022-09-11T04:01:18.970Z,2.80
2022-09-11T04:03:47.080Z,3.07
2022-09-11T04:06:25.883Z,3.53
2022-09-11T04:08:55.392Z,3.30
2022-09-11T04:11:24.038Z,3.30
2022-09-11T04:13:52.396Z,3.50
2022-09-11T04:16:20.245Z,3.80
2022-09-11T04:18:54.267Z,3.43
2022-09-11T04:21:24.313Z,3.63
2022-09-11T04:23:56.472Z,3.70
2022-09-11T04:26:27.717Z,4.03
2022-09-11T04:29:01.155Z,4.00
2022-09-11T04:31:28.777Z,4.70
2022-09-11T04:33:58.105Z,4.63
2022-09-11T04:36:29.964Z,5.20
2022-09-11T04:39:00.133Z,5.00
2022-09-11T04:41:29.273Z,5.07
2022-09-11T04:44:04.909Z,5.50
2022-09-11T04:46:34.530Z,4.67
2022-09-11T04:49:03.299Z,5.50
2022-09-11T04:51:32.237Z,5.33
2022-09-11T04:54:00.873Z,5.30
2022-09-11T04:56:37.702Z,5.60
2022-09-11T04:59:06.396Z,5.43
2022-09-11T05:01:36.684Z,5.37
2022-09-11T05:04:04.327Z,5.00
2022-09-11T05:06:32.723Z,5.30
2022-09-11T05:09:04.553Z,5.10
2022-09-11T05:11:35.941Z,5.63
2022-09-11T05:14:03.916Z,5.17
2022-09-11T05:16:35.202Z,5.20
2022-09-11T05:19:03.831Z,5.57
2022-09-11T05:21:33.244Z,6.03
2022-09-11T05:24:01.535Z,5.80
2022-09-11T05:26:31.963Z,6.47
2022-09-11T05:29:03.502Z,7.00
2022-09-11T05:31:34.491Z,7.93
2022-09-11T05:34:03.228Z,8.73
2022-09-11T05:36:31.684Z,8.23
2022-09-11T05:38:59.177Z,8.47
2022-09-11T05:41:26.868Z,9.33
2022-09-11T05:43:54.653Z,8.87
2022-09-11T05:46:23.459Z,9.63
2022-09-11T05:48:54.785Z,9.97
2022-09-11T05:51:22.908Z,9.27
2022-09-11T05:53:53.569Z,9.07
2022-09-11T05:56:22.335Z,9.77
2022-09-11T05:58:52.509Z,9.67
2022-09-11T06:01:24.707Z,9.73
2022-09-11T06:04:02.659Z,10.10
2022-09-11T06:06:30.274Z,10.70
2022-09-11T06:08:57.821Z,11.10
2022-09-11T06:11:27.153Z,10.77
2022-09-11T06:13:54.959Z,11.37
2022-09-11T06:16:25.023Z,10.83
2022-09-11T06:18:55.384Z,11.67
2022-09-11T06:21:23.856Z,11.10
2022-09-11T06:24:01.922Z,11.17
2022-09-11T06:26:29.863Z,12.03
2022-09-11T06:28:57.531Z,11.73
2022-09-11T06:31:27.736Z,11.50
2022-09-11T06:33:55.947Z,11.33
2022-09-11T06:36:26.689Z,11.80
2022-09-11T06:38:55.741Z,10.83
2022-09-11T06:41:25.500Z,11.57
2022-09-11T06:43:57.394Z,11.97
2022-09-11T06:46:28.255Z,10.47
2022-09-11T06:48:57.591Z,11.03
2022-09-11T06:51:28.889Z,10.63
2022-09-11T06:53:58.597Z,11.67
2022-09-11T06:56:32.543Z,10.93
2022-09-11T06:59:01.635Z,11.93
2022-09-11T07:01:32.188Z,11.70
2022-09-11T07:04:02.963Z,10.83
2022-09-11T07:06:33.033Z,10.77
2022-09-11T07:09:02.739Z,11.50
2022-09-11T07:11:51.455Z,10.67
2022-09-11T07:14:21.330Z,10.47
2022-09-11T07:16:55.775Z,11.33
2022-09-11T07:19:24.863Z,10.53
2022-09-11T07:21:52.632Z,10.33
2022-09-11T07:24:21.723Z,10.03
2022-09-11T07:26:50.272Z,10.90
2022-09-11T07:29:27.104Z,10.83
2022-09-11T07:31:57.772Z,10.70
2022-09-11T07:34:25.388Z,10.17
2022-09-11T07:36:52.948Z,10.73
2022-09-11T07:39:23.705Z,10.10
2022-09-11T07:41:57.055Z,9.77
2022-09-11T07:44:28.781Z,10.10
2022-09-11T07:46:58.694Z,10.30
2022-09-11T07:49:27.284Z,10.30
2022-09-11T07:51:55.369Z,10.20
2022-09-11T07:54:33.084Z,11.07
2022-09-11T07:57:00.501Z,11.80
2022-09-11T07:59:27.858Z,11.53
2022-09-11T08:01:55.817Z,11.57
2022-09-11T08:04:25.531Z,11.53
2022-09-11T08:06:54.924Z,10.30
2022-09-11T08:09:27.807Z,9.83
2022-09-11T08:11:59.895Z,8.07
2022-09-11T08:14:28.193Z,7.77
2022-09-11T08:17:03.386Z,7.57
2022-09-11T08:19:33.746Z,7.63
2022-09-11T08:22:02.921Z,7.00
2022-09-11T08:24:35.724Z,6.70
2022-09-11T08:27:05.968Z,5.67
2022-09-11T08:29:36.176Z,5.80
2022-09-11T08:32:04.473Z,5.97
2022-09-11T08:34:35.244Z,5.17
2022-09-11T08:37:03.145Z,4.70
2022-09-11T08:39:37.217Z,4.20
2022-09-11T08:42:15.167Z,4.00
2022-09-11T08:44:47.885Z,3.70
2022-09-11T08:47:24.327Z,3.83
2022-09-11T08:49:58.944Z,3.53
2022-09-11T08:52:28.153Z,3.60
2022-09-11T08:54:57.335Z,4.07
2022-09-11T08:57:27.964Z,3.70
2022-09-11T09:00:08.854Z,3.10
2022-09-11T09:02:53.536Z,3.30
2022-09-11T09:05:26.346Z,3.77
2022-09-11T09:08:02.300Z,3.13
2022-09-11T09:10:36.272Z,3.10
2022-09-11T09:13:08.599Z,3.57
2022-09-11T09:15:40.764Z,3.87
2022-09-11T09:18:11.697Z,3.70
2022-09-11T09:20:43.522Z,4.00
2022-09-11T09:23:15.245Z,3.60
2022-09-11T09:25:43.804Z,3.97
2022-09-11T09:28:18.385Z,3.73
2022-09-11T09:30:47.629Z,3.17
2022-09-11T09:33:21.686Z,3.63
2022-09-11T09:35:51.072Z,3.47
2022-09-11T09:38:26.918Z,3.47
2022-09-11T09:40:57.908Z,4.10
2022-09-11T09:43:33.802Z,4.23
2022-09-11T09:46:14.836Z,4.27
2022-09-11T09:48:42.361Z,4.83
2022-09-11T09:51:13.771Z,4.47
2022-09-11T09:53:43.118Z,4.57
2022-09-11T09:56:13.628Z,4.33
2022-09-11T09:58:43.349Z,4.30
2022-09-11T10:01:38.857Z,4.50
2022-09-11T10:04:12.567Z,4.10
2022-09-11T10:06:40.173Z,4.40
2022-09-11T10:09:18.507Z,5.30
2022-09-11T10:11:46.661Z,6.70
2022-09-11T10:14:46.851Z,6.80
2022-09-11T10:17:07.130Z,6.63
2022-09-11T10:19:37.546Z,7.10
2022-09-11T10:22:24.384Z,7.00
2022-09-11T10:25:02.267Z,6.80
2022-09-11T10:27:31.567Z,6.37
2022-09-11T10:30:00.496Z,6.30
2022-09-11T10:32:28.978Z,6.40
2022-09-11T10:34:58.418Z,7.47
2022-09-11T10:37:27.531Z,7.60
2022-09-11T10:39:56.709Z,6.97
2022-09-11T10:42:26.510Z,7.10
2022-09-11T10:44:55.259Z,6.50
2022-09-11T10:47:24.959Z,6.50
2022-09-11T10:50:11.263Z,5.97
2022-09-11T10:52:47.505Z,6.17
2022-09-11T10:55:17.457Z,6.93
2022-09-11T10:57:46.007Z,7.53
2022-09-11T11:00:15.453Z,7.70
2022-09-11T11:02:44.708Z,7.00
2022-09-11T11:05:18.156Z,7.60
2022-09-11T11:07:53.937Z,7.70
2022-09-11T11:10:26.138Z,6.80
2022-09-11T11:12:59.070Z,6.87
2022-09-11T11:15:31.920Z,6.83
2022-09-11T11:18:11.846Z,6.40
2022-09-11T11:20:45.701Z,5.30
2022-09-11T11:23:21.401Z,6.07
2022-09-11T11:25:54.113Z,5.40
2022-09-11T11:28:28.563Z,6.10
2022-09-11T11:31:00.949Z,6.50
2022-09-11T11:33:39.068Z,5.77
2022-09-11T11:36:08.639Z,5.90
2022-09-11T11:38:41.876Z,5.70
2022-09-11T11:41:14.033Z,5.13
2022-09-11T11:43:43.007Z,6.30
2022-09-11T11:46:15.468Z,6.03
2022-09-11T11:48:46.734Z,6.40
2022-09-11T11:51:17.764Z,6.20
2022-09-11T11:53:49.662Z,5.40
2022-09-11T11:56:20.703Z,6.30
2022-09-11T11:58:51.169Z,6.60
2022-09-11T12:01:22.136Z,6.30
2022-09-11T12:03:52.156Z,6.77
2022-09-11T12:06:20.328Z,6.50
2022-09-11T12:08:49.769Z,6.37
2022-09-11T12:11:20.130Z,6.63
2022-09-11T12:13:48.171Z,6.80
2022-09-11T12:16:19.086Z,6.80
2022-09-11T12:19:07.722Z,6.83
2022-09-11T12:21:40.245Z,7.63
2022-09-11T12:24:15.893Z,6.50
2022-09-11T12:26:43.237Z,6.50
2022-09-11T12:29:29.404Z,7.20
2022-09-11T12:32:20.829Z,7.10
2022-09-11T12:34:59.861Z,7.43
2022-09-11T12:37:28.245Z,8.00
2022-09-11T12:40:01.564Z,7.73
2022-09-11T12:42:47.860Z,6.90
2022-09-11T12:45:30.531Z,7.87
2022-09-11T12:48:03.335Z,8.43
2022-09-11T12:50:30.730Z,7.87
2022-09-11T12:53:02.239Z,7.47
2022-09-11T12:55:33.190Z,8.47
2022-09-11T12:58:03.443Z,7.30
2022-09-11T13:00:39.144Z,7.97
2022-09-11T13:03:08.255Z,8.03
2022-09-11T13:05:37.948Z,8.10
2022-09-11T13:08:07.281Z,8.17
2022-09-11T13:10:37.067Z,8.33
2022-09-11T13:13:26.677Z,7.43
2022-09-11T13:15:57.844Z,8.00
2022-09-11T13:18:26.480Z,8.50
2022-09-11T13:20:57.148Z,7.80
2022-09-11T13:23:25.083Z,7.70
2022-09-11T13:25:54.825Z,7.37
2022-09-11T13:28:26.667Z,7.97
2022-09-11T13:31:00.463Z,7.57
2022-09-11T13:33:29.088Z,7.30
2022-09-11T13:35:57.477Z,7.20
2022-09-11T13:38:26.675Z,7.00
2022-09-11T13:40:57.930Z,6.37
2022-09-11T13:43:29.698Z,6.87
2022-09-11T13:46:18.965Z,6.50
2022-09-11T13:48:47.441Z,6.90
2022-09-11T13:51:16.402Z,6.20
2022-09-11T13:53:44.526Z,5.57
2022-09-11T13:56:21.310Z,5.70
2022-09-11T13:58:53.343Z,6.20
2022-09-11T14:01:21.062Z,5.37
2022-09-11T14:03:48.927Z,5.67
2022-09-11T14:06:18.067Z,5.30
2022-09-11T14:08:49.885Z,5.60
2022-09-11T14:11:23.655Z,5.63
2022-09-11T14:13:52.535Z,5.07
2022-09-11T14:16:23.090Z,4.97
2022-09-11T14:18:52.442Z,4.70
2022-09-11T14:21:22.822Z,4.17
2022-09-11T14:23:52.347Z,4.17
2022-09-11T14:26:20.428Z,4.10
2022-09-11T14:29:03.930Z,4.10
2022-09-11T14:31:33.913Z,4.13
2022-09-11T14:34:18.168Z,3.80
2022-09-11T14:36:47.988Z,3.30
2022-09-11T14:39:17.304Z,3.60
2022-09-11T14:41:45.302Z,3.83
2022-09-11T14:44:15.596Z,3.70
2022-09-11T14:46:43.451Z,3.80
2022-09-11T14:49:12.631Z,3.90
2022-09-11T14:51:40.930Z,4.00
2022-09-11T14:54:11.100Z,3.77
2022-09-11T14:56:40.288Z,4.07
2022-09-11T14:59:07.799Z,3.57
2022-09-11T15:01:36.715Z,3.97
2022-09-11T15:04:04.467Z,3.93
2022-09-11T15:06:31.903Z,3.93
2022-09-11T15:09:01.437Z,3.87
2022-09-11T15:11:28.893Z,3.80
2022-09-11T15:14:14.309Z,4.07
2022-09-11T15:16:45.970Z,3.77
2022-09-11T15:19:14.499Z,3.70
2022-09-11T15:21:42.065Z,3.80
2022-09-11T15:24:09.854Z,3.30
2022-09-11T15:26:37.633Z,3.70
2022-09-11T15:29:09.931Z,3.43
2022-09-11T15:31:37.489Z,3.87
2022-09-11T15:34:07.218Z,4.07
2022-09-11T15:36:36.095Z,3.77
2022-09-11T15:39:03.560Z,3.70
2022-09-11T15:41:31.052Z,3.93
2022-09-11T15:43:58.615Z,3.70
2022-09-11T15:46:26.159Z,4.00
2022-09-11T15:48:53.554Z,3.40
2022-09-11T15:51:23.591Z,4.17
2022-09-11T15:53:52.278Z,3.83
2022-09-11T15:56:25.220Z,3.17
2022-09-11T15:58:53.298Z,3.67
2022-09-11T16:01:21.920Z,3.33
2022-09-11T16:03:50.681Z,3.30
2022-09-11T16:06:18.142Z,3.97
2022-09-11T16:08:47.875Z,3.73
2022-09-11T16:11:15.410Z,4.07
2022-09-11T16:13:43.408Z,3.87
2022-09-11T16:16:10.990Z,4.10
2022-09-11T16:18:39.367Z,4.10
2022-09-11T16:21:07.521Z,3.43
2022-09-11T16:23:35.349Z,4.00
2022-09-11T16:26:05.357Z,3.20
2022-09-11T16:28:33.948Z,3.63
2022-09-11T16:31:02.335Z,3.93
2022-09-11T16:33:30.939Z,3.70
2022-09-11T16:35:59.341Z,3.93
2022-09-11T16:38:26.969Z,3.77
2022-09-11T16:41:01.119Z,3.90
2022-09-11T16:43:30.513Z,3.40
2022-09-11T16:45:57.898Z,3.90
2022-09-11T16:48:26.411Z,3.57
2022-09-11T16:50:54.223Z,3.50
2022-09-11T16:53:21.785Z,3.93
2022-09-11T16:55:49.515Z,3.50
2022-09-11T16:58:16.844Z,3.80
2022-09-11T17:00:45.767Z,4.10
2022-09-11T17:03:13.641Z,3.93
2022-09-11T17:05:46.648Z,4.10
2022-09-11T17:08:13.977Z,4.20
2022-09-11T17:10:42.946Z,4.20
2022-09-11T17:13:10.330Z,4.13
2022-09-11T17:15:37.731Z,4.10
2022-09-11T17:18:06.675Z,3.83
2022-09-11T17:20:34.069Z,4.03
2022-09-11T17:23:01.545Z,4.20
2022-09-11T17:25:29.527Z,4.00
2022-09-11T17:27:57.094Z,4.17
2022-09-11T17:30:24.435Z,3.77
2022-09-11T17:32:52.130Z,3.87
2022-09-11T17:35:20.862Z,3.73
2022-09-11T17:37:48.541Z,3.83
2022-09-11T17:40:16.108Z,4.10
2022-09-11T17:42:45.295Z,4.00
2022-09-11T17:45:13.121Z,4.13
2022-09-11T17:47:40.882Z,3.90
2022-09-11T17:50:08.553Z,4.00
2022-09-11T17:52:37.895Z,3.77
2022-09-11T17:55:05.915Z,3.70
2022-09-11T17:57:33.511Z,3.93
2022-09-11T18:00:00.885Z,4.20
2022-09-11T18:02:28.573Z,4.00
2022-09-11T18:04:55.953Z,3.50
2022-09-11T18:07:23.272Z,3.80
2022-09-11T18:09:56.238Z,4.00
2022-09-11T18:12:25.685Z,3.67
2022-09-11T18:14:55.862Z,3.77
2022-09-11T18:17:23.324Z,3.60
2022-09-11T18:19:50.903Z,3.90
2022-09-11T18:22:19.844Z,3.97
2022-09-11T18:24:47.353Z,4.23
2022-09-11T18:27:16.026Z,4.30
2022-09-11T18:29:43.482Z,4.40
2022-09-11T18:32:10.874Z,3.87
2022-09-11T18:34:38.841Z,4.17
2022-09-11T18:37:07.509Z,4.30
2022-09-11T18:39:34.945Z,4.30
2022-09-11T18:42:05.845Z,4.50
2022-09-11T18:44:34.541Z,4.03
2022-09-11T18:47:02.185Z,4.50
2022-09-11T18:49:29.508Z,4.30
2022-09-11T18:51:56.841Z,4.03
2022-09-11T18:54:25.437Z,4.37
2022-09-11T18:56:53.097Z,4.33
2022-09-11T18:59:20.832Z,4.40
2022-09-11T19:01:49.585Z,4.47
2022-09-11T19:04:17.269Z,4.40
2022-09-11T19:06:46.195Z,4.20
2022-09-11T19:09:14.032Z,5.17
2022-09-11T19:11:41.606Z,6.03
2022-09-11T19:14:10.790Z,5.40
2022-09-11T19:16:39.408Z,5.03
2022-09-11T19:19:08.508Z,5.20
2022-09-11T19:21:37.733Z,4.77
2022-09-11T19:24:06.582Z,5.37
2022-09-11T19:26:34.819Z,5.50
2022-09-11T19:29:02.461Z,5.93
2022-09-11T19:31:30.311Z,5.40
2022-09-11T19:34:00.154Z,5.37
2022-09-11T19:36:30.197Z,4.90
2022-09-11T19:39:00.637Z,4.10
2022-09-11T19:41:29.029Z,4.07
2022-09-11T19:44:00.278Z,4.37
2022-09-11T19:46:28.705Z,4.20
2022-09-11T19:48:56.928Z,4.50
2022-09-11T19:51:25.240Z,4.57
2022-09-11T19:53:55.993Z,4.00
2022-09-11T19:56:23.864Z,4.80
2022-09-11T19:58:51.372Z,4.50
2022-09-11T20:01:21.303Z,4.60
2022-09-11T20:03:49.147Z,4.00
2022-09-11T20:06:18.291Z,4.30
2022-09-11T20:08:46.593Z,4.53
2022-09-11T20:11:16.735Z,4.23
2022-09-11T20:13:44.218Z,4.93
2022-09-11T20:16:14.956Z,5.13
2022-09-11T20:18:42.866Z,5.53
2022-09-11T20:21:11.063Z,5.27
2022-09-11T20:23:38.957Z,5.30
2022-09-11T20:26:12.505Z,5.10
2022-09-11T20:28:43.874Z,5.27
2022-09-11T20:31:14.752Z,5.53
2022-09-11T20:33:42.494Z,5.43
2022-09-11T20:36:09.856Z,5.57
2022-09-11T20:38:37.453Z,6.20
2022-09-11T20:41:05.698Z,6.20
2022-09-11T20:43:33.118Z,5.90
2022-09-11T20:46:01.871Z,6.47
2022-09-11T20:48:29.235Z,6.60
2022-09-11T20:51:01.615Z,5.93
2022-09-11T20:53:28.947Z,5.77
2022-09-11T20:56:00.576Z,6.20
2022-09-11T20:58:27.901Z,6.47
2022-09-11T21:00:55.353Z,6.13
2022-09-11T21:03:24.065Z,6.47
2022-09-11T21:05:51.457Z,5.93
2022-09-11T21:08:19.046Z,7.17
2022-09-11T21:10:46.701Z,6.83
2022-09-11T21:13:14.569Z,6.83
2022-09-11T21:15:42.589Z,6.83
2022-09-11T21:18:09.940Z,6.47
2022-09-11T21:20:38.751Z,6.17
2022-09-11T21:23:06.154Z,6.60
2022-09-11T21:25:38.201Z,7.20
2022-09-11T21:28:05.632Z,6.50
2022-09-11T21:30:33.271Z,6.43
2022-09-11T21:33:00.613Z,6.13
2022-09-11T21:35:28.069Z,6.17
2022-09-11T21:37:57.152Z,6.20
2022-09-11T21:40:24.644Z,5.87
2022-09-11T21:42:52.062Z,6.67
2022-09-11T21:45:19.728Z,6.50
2022-09-11T21:47:47.056Z,7.00
2022-09-11T21:50:14.389Z,7.13
2022-09-11T21:52:41.748Z,6.37
2022-09-11T21:55:11.342Z,7.13
2022-09-11T21:57:38.673Z,7.10
2022-09-11T22:00:08.544Z,7.47
2022-09-11T22:02:35.931Z,7.37
2022-09-11T22:05:03.983Z,7.60
2022-09-11T22:07:31.838Z,7.67
2022-09-11T22:09:59.531Z,7.67
2022-09-11T22:12:28.229Z,7.57
2022-09-11T22:14:55.793Z,7.47
2022-09-11T22:17:23.524Z,7.37
2022-09-11T22:19:50.873Z,6.90
2022-09-11T22:22:18.579Z,7.33
2022-09-11T22:24:45.942Z,7.40
2022-09-11T22:27:13.291Z,7.80
2022-09-11T22:29:46.387Z,7.07
2022-09-11T22:32:14.388Z,7.37
2022-09-11T22:34:42.087Z,6.77
2022-09-11T22:37:09.608Z,6.67
2022-09-11T22:39:37.606Z,7.17
2022-09-11T22:42:05.380Z,7.40
2022-09-11T22:44:32.715Z,7.50
2022-09-11T22:47:01.370Z,6.73
2022-09-11T22:49:28.695Z,6.13
2022-09-11T22:51:56.017Z,7.30
2022-09-11T22:54:23.441Z,8.03
2022-09-11T22:56:50.923Z,7.53
2022-09-11T22:59:18.256Z,7.40
2022-09-11T23:01:45.732Z,6.80
2022-09-11T23:04:14.472Z,6.93
2022-09-11T23:06:59.487Z,6.67
2022-09-11T23:09:26.926Z,7.30
2022-09-11T23:11:55.590Z,7.83
2022-09-11T23:14:22.919Z,7.80
2022-09-11T23:16:50.708Z,8.50
2022-09-11T23:19:19.830Z,8.90
2022-09-11T23:21:47.409Z,8.60
2022-09-11T23:24:15.362Z,8.80
2022-09-11T23:26:43.303Z,8.47
2022-09-11T23:29:10.748Z,8.93
2022-09-11T23:31:38.134Z,8.80
2022-09-11T23:34:06.515Z,9.20
2022-09-11T23:36:36.343Z,9.17
2022-09-11T23:39:04.100Z,9.43
2022-09-11T23:41:31.972Z,10.03
2022-09-11T23:43:59.372Z,8.90
2022-09-11T23:46:26.893Z,9.53
2022-09-11T23:48:54.230Z,8.37
2022-09-11T23:51:22.257Z,8.63
2022-09-11T23:53:51.696Z,8.87
2022-09-11T23:56:19.361Z,8.83
2022-09-11T23:58:46.793Z,9.30
